createdAt,value
2016-04-14T00:00:54.861Z,43.4
2016-04-14T00:01:54.910Z,43.5
2016-04-14T00:02:54.960Z,43.6
2016-04-14T00:03:55.024Z,43.31
2016-04-14T00:04:55.058Z,43.4
2016-04-14T00:05:55.124Z,43.6
2016-04-14T00:06:55.174Z,43.6
2016-04-14T00:07:55.223Z,43.5
2016-04-14T00:08:55.302Z,43.6
2016-04-14T00:09:55.320Z,43.7
2016-04-14T00:10:55.385Z,43.6
2016-04-14T00:11:55.419Z,43.31
2016-04-14T00:12:55.485Z,43.79
2016-04-14T00:13:55.534Z,43.98
2016-04-14T00:14:55.599Z,43.88
2016-04-14T00:15:55.633Z,43.6
2016-04-14T00:16:55.682Z,43.5
2016-04-14T00:17:55.732Z,43.5
2016-04-14T00:18:55.798Z,43.5
2016-04-14T00:20:11.160Z,43.7
2016-04-14T00:20:55.881Z,43.7
2016-04-14T00:21:55.962Z,43.88
2016-04-14T00:22:55.996Z,43.88
2016-04-14T00:23:56.045Z,43.79
2016-04-14T00:24:56.095Z,44.08
2016-04-14T00:25:56.144Z,43.79
2016-04-14T00:26:56.210Z,43.98
2016-04-14T00:27:56.243Z,44.17
2016-04-14T00:28:56.308Z,43.98
2016-04-14T00:29:56.359Z,44.17
2016-04-14T00:30:56.408Z,44.08
2016-04-14T00:31:56.457Z,44.08
2016-04-14T00:32:56.507Z,44.08
2016-04-14T00:33:56.556Z,44.37
2016-04-14T00:34:56.606Z,44.17
2016-04-14T00:35:56.582Z,44.17
2016-04-14T00:36:56.727Z,44.37
2016-04-14T00:37:56.777Z,44.37
2016-04-14T00:38:56.827Z,44.17
2016-04-14T00:39:56.892Z,44.27
2016-04-14T00:40:56.926Z,44.27
2016-04-14T00:41:56.976Z,44.08
2016-04-14T00:42:57.025Z,44.37
2016-04-14T00:43:57.074Z,44.46
2016-04-14T00:44:57.124Z,44.17
2016-04-14T00:45:57.174Z,44.17
2016-04-14T00:46:57.224Z,44.17
2016-04-14T00:47:57.289Z,44.17
2016-04-14T00:48:57.338Z,44.37
2016-04-14T00:49:57.388Z,44.17
2016-04-14T00:50:57.437Z,44.17
2016-04-14T00:51:57.486Z,44.17
2016-04-14T00:52:57.537Z,44.46
2016-04-14T00:53:57.586Z,44.37
2016-04-14T00:54:57.636Z,44.27
2016-04-14T00:55:57.685Z,44.46
2016-04-14T00:56:57.750Z,44.84
2016-04-14T00:57:57.800Z,44.37
2016-04-14T00:58:57.849Z,44.37
2016-04-14T00:59:57.899Z,44.27
2016-04-14T01:00:57.964Z,44.94
2016-04-14T01:01:57.997Z,44.84
2016-04-14T01:02:58.047Z,44.56
2016-04-14T01:03:58.113Z,44.56
2016-04-14T01:04:58.162Z,44.46
2016-04-14T01:05:58.213Z,44.46
2016-04-14T01:06:58.261Z,44.46
2016-04-14T01:07:58.311Z,44.94
2016-04-14T01:08:58.360Z,44.46
2016-04-14T01:09:58.426Z,44.56
2016-04-14T01:10:58.476Z,44.75
2016-04-14T01:11:58.509Z,44.65
2016-04-14T01:12:58.574Z,44.56
2016-04-14T01:13:58.624Z,44.56
2016-04-14T01:14:58.704Z,44.84
2016-04-14T01:15:58.739Z,44.84
2016-04-14T01:16:58.773Z,44.65
2016-04-14T01:17:58.822Z,44.65
2016-04-14T01:18:59.038Z,44.84
2016-04-14T01:19:58.931Z,45.04
2016-04-14T01:20:58.981Z,44.84
2016-04-14T01:21:59.030Z,44.84
2016-04-14T01:22:58.939Z,44.94
2016-04-14T01:23:59.145Z,44.84
2016-04-14T01:24:59.194Z,44.84
2016-04-14T01:25:59.244Z,44.84
2016-04-14T01:26:59.294Z,44.75
2016-04-14T01:27:59.343Z,44.94
2016-04-14T01:28:59.549Z,45.14
2016-04-14T01:29:59.458Z,44.94
2016-04-14T01:30:59.491Z,45.04
2016-04-14T01:31:59.511Z,45.04
2016-04-14T01:32:59.638Z,45.04
2016-04-14T01:33:59.657Z,44.65
2016-04-14T01:34:59.706Z,44.65
2016-04-14T01:35:59.755Z,44.94
2016-04-14T01:36:59.805Z,45.23
2016-04-14T01:37:59.854Z,44.65
2016-04-14T01:38:59.920Z,45.14
2016-04-14T01:39:59.970Z,45.14
2016-04-14T01:41:00.018Z,44.75
2016-04-14T01:42:00.068Z,45.23
2016-04-14T01:43:00.118Z,45.32
2016-04-14T01:44:00.168Z,44.75
2016-04-14T01:45:00.233Z,45.14
2016-04-14T01:46:00.282Z,45.14
2016-04-14T01:47:00.316Z,45.14
2016-04-14T01:48:00.366Z,45.04
2016-04-14T01:49:00.431Z,45.04
2016-04-14T01:50:00.481Z,45.32
2016-04-14T01:51:00.530Z,45.04
2016-04-14T01:52:00.595Z,45.14
2016-04-14T01:53:00.630Z,45.14
2016-04-14T01:54:00.678Z,45.04
2016-04-14T01:55:00.744Z,45.14
2016-04-14T01:56:00.793Z,44.94
2016-04-14T01:57:00.844Z,45.04
2016-04-14T01:58:00.893Z,45.32
2016-04-14T01:59:00.942Z,45.23
2016-04-14T02:00:00.992Z,45.14
2016-04-14T02:01:01.041Z,45.23
2016-04-14T02:02:01.107Z,45.04
2016-04-14T02:03:01.157Z,45.14
2016-04-14T02:04:01.205Z,44.94
2016-04-14T02:05:01.255Z,45.04
2016-04-14T02:06:01.304Z,45.23
2016-04-14T02:07:01.370Z,45.42
2016-04-14T02:08:01.404Z,44.84
2016-04-14T02:09:01.454Z,45.42
2016-04-14T02:10:01.518Z,45.23
2016-04-14T02:11:01.568Z,45.32
2016-04-14T02:12:01.617Z,45.14
2016-04-14T02:13:01.667Z,45.14
2016-04-14T02:14:01.732Z,45.14
2016-04-14T02:15:01.782Z,45.23
2016-04-14T02:16:01.817Z,45.71
2016-04-14T02:17:01.882Z,45.23
2016-04-14T02:18:01.931Z,45.9
2016-04-14T02:19:01.964Z,45.42
2016-04-14T02:20:02.046Z,45.32
2016-04-14T02:21:02.080Z,45.42
2016-04-14T02:22:02.129Z,45.42
2016-04-14T02:23:02.179Z,45.32
2016-04-14T02:24:02.228Z,45.14
2016-04-14T02:25:02.278Z,45.23
2016-04-14T02:26:02.343Z,45.23
2016-04-14T02:27:02.377Z,45.23
2016-04-14T02:28:02.441Z,45.61
2016-04-14T02:29:02.492Z,45.42
2016-04-14T02:30:02.541Z,45.42
2016-04-14T02:31:02.606Z,45.61
2016-04-14T02:32:02.641Z,45.61
2016-04-14T02:33:02.705Z,45.52
2016-04-14T02:34:02.740Z,45.61
2016-04-14T02:35:02.805Z,45.71
2016-04-14T02:36:02.854Z,45.52
2016-04-14T02:37:02.904Z,45.9
2016-04-14T02:38:02.954Z,45.61
2016-04-14T02:39:03.003Z,45.61
2016-04-14T02:40:03.068Z,45.42
2016-04-14T02:41:03.118Z,45.23
2016-04-14T02:42:03.167Z,45.71
2016-04-14T02:43:03.217Z,45.61
2016-04-14T02:44:03.282Z,45.61
2016-04-14T02:45:03.315Z,45.61
2016-04-14T02:46:03.365Z,45.52
2016-04-14T02:47:03.431Z,45.61
2016-04-14T02:48:03.480Z,46.38
2016-04-14T02:49:03.530Z,46.38
2016-04-14T02:50:03.579Z,46.38
2016-04-14T02:51:03.628Z,46.77
2016-04-14T02:52:03.679Z,46.28
2016-04-14T02:53:03.728Z,46.09
2016-04-14T02:54:03.794Z,46
2016-04-14T02:55:03.827Z,46.28
2016-04-14T02:56:03.877Z,46.77
2016-04-14T02:57:03.942Z,46.19
2016-04-14T02:58:03.991Z,45.9
2016-04-14T02:59:04.041Z,46.09
2016-04-14T03:00:04.091Z,45.9
2016-04-14T03:01:04.141Z,45.9
2016-04-14T03:02:04.205Z,46
2016-04-14T03:03:04.239Z,45.9
2016-04-14T03:04:04.288Z,46.09
2016-04-14T03:05:04.355Z,45.9
2016-04-14T03:06:04.404Z,46.09
2016-04-14T03:07:04.453Z,45.9
2016-04-14T03:08:04.347Z,46.09
2016-04-14T03:09:04.552Z,46.58
2016-04-14T03:10:04.602Z,46.09
2016-04-14T03:11:04.667Z,46.09
2016-04-14T03:12:04.717Z,46
2016-04-14T03:13:04.765Z,45.9
2016-04-14T03:14:04.848Z,46.09
2016-04-14T03:15:04.865Z,46.09
2016-04-14T03:16:04.914Z,46.09
2016-04-14T03:17:04.965Z,45.9
2016-04-14T03:18:05.014Z,46
2016-04-14T03:19:05.079Z,46
2016-04-14T03:20:05.129Z,45.9
2016-04-14T03:21:05.178Z,46.19
2016-04-14T03:22:05.228Z,46
2016-04-14T03:23:05.278Z,46.19
2016-04-14T03:24:05.327Z,46
2016-04-14T03:25:05.377Z,45.9
2016-04-14T03:26:05.426Z,45.9
2016-04-14T03:27:05.491Z,45.9
2016-04-14T03:28:05.542Z,46.19
2016-04-14T03:29:05.591Z,45.9
2016-04-14T03:30:05.641Z,46.77
2016-04-14T03:31:05.689Z,46.09
2016-04-14T03:32:05.755Z,46
2016-04-14T03:33:05.805Z,46
2016-04-14T03:34:05.854Z,45.81
2016-04-14T03:35:05.904Z,46.28
2016-04-14T03:36:05.952Z,46.58
2016-04-14T03:37:06.002Z,45.71
2016-04-14T03:38:06.068Z,46.67
2016-04-14T03:39:06.118Z,45.81
2016-04-14T03:40:06.151Z,46
2016-04-14T03:41:06.201Z,46.28
2016-04-14T03:42:06.266Z,45.9
2016-04-14T03:43:06.159Z,46.09
2016-04-14T03:44:06.365Z,46.09
2016-04-14T03:45:06.415Z,46.19
2016-04-14T03:46:06.464Z,46.09
2016-04-14T03:47:06.515Z,46.58
2016-04-14T03:48:06.579Z,47.05
2016-04-14T03:49:06.612Z,46.28
2016-04-14T03:50:06.679Z,46.48
2016-04-14T03:51:06.728Z,46.38
2016-04-14T03:52:06.778Z,46.48
2016-04-14T03:53:06.827Z,46.48
2016-04-14T03:54:06.876Z,46.67
2016-04-14T03:55:06.926Z,46.48
2016-04-14T03:56:06.976Z,46.48
2016-04-14T03:57:07.041Z,46.31
2016-04-14T03:58:07.090Z,47.34
2016-04-14T03:59:07.139Z,46.59
2016-04-14T04:00:07.205Z,47.25
2016-04-14T04:01:07.239Z,47.82
2016-04-14T04:02:07.288Z,47.34
2016-04-14T04:03:07.354Z,47.15
2016-04-14T04:04:07.403Z,47.36
2016-04-14T04:05:07.452Z,47.25
2016-04-14T04:06:07.518Z,47.15
2016-04-14T04:07:07.552Z,47.34
2016-04-14T04:08:07.601Z,47.34
2016-04-14T04:09:07.496Z,47.15
2016-04-14T04:10:07.701Z,47.15
2016-04-14T04:11:07.750Z,47.15
2016-04-14T04:12:07.832Z,47.25
2016-04-14T04:13:07.849Z,47.25
2016-04-14T04:14:07.915Z,47.05
2016-04-14T04:15:07.965Z,46.38
2016-04-14T04:16:08.014Z,47.17
2016-04-14T04:17:08.063Z,46.96
2016-04-14T04:18:08.113Z,46.58
2016-04-14T04:19:08.178Z,46.96
2016-04-14T04:20:08.228Z,47.44
2016-04-14T04:21:08.278Z,46.96
2016-04-14T04:22:08.327Z,47.34
2016-04-14T04:23:08.220Z,47.15
2016-04-14T04:24:08.426Z,47.34
2016-04-14T04:25:08.491Z,47.15
2016-04-14T04:26:08.541Z,47.15
2016-04-14T04:27:08.590Z,47.15
2016-04-14T04:28:08.625Z,47.15
2016-04-14T04:29:08.689Z,47.27
2016-04-14T04:30:08.738Z,47.25
2016-04-14T04:31:08.789Z,46.96
2016-04-14T04:32:08.838Z,47.25
2016-04-14T04:33:08.888Z,47.25
2016-04-14T04:34:08.953Z,47.72
2016-04-14T04:35:08.986Z,46.98
2016-04-14T04:36:09.052Z,47.72
2016-04-14T04:37:09.102Z,47.05
2016-04-14T04:38:09.151Z,46.96
2016-04-14T04:39:09.201Z,47.25
2016-04-14T04:40:09.249Z,47.05
2016-04-14T04:41:09.299Z,47.05
2016-04-14T04:42:09.365Z,47.15
2016-04-14T04:43:09.415Z,47.05
2016-04-14T04:44:09.464Z,47.05
2016-04-14T04:45:09.513Z,47.25
2016-04-14T04:46:09.563Z,46.86
2016-04-14T04:47:09.628Z,46.67
2016-04-14T04:48:09.662Z,47.44
2016-04-14T04:49:09.712Z,47.53
2016-04-14T04:50:09.776Z,46.79
2016-04-14T04:51:09.826Z,47.05
2016-04-14T04:52:09.876Z,47.05
2016-04-14T04:53:09.926Z,46.96
2016-04-14T04:54:09.991Z,46.96
2016-04-14T04:55:10.025Z,47.34
2016-04-14T04:56:10.090Z,46.89
2016-04-14T04:57:10.139Z,46.96
2016-04-14T04:58:10.189Z,47.08
2016-04-14T04:59:10.238Z,46.86
2016-04-14T05:00:10.288Z,47.34
2016-04-14T05:01:10.354Z,46.77
2016-04-14T05:02:10.388Z,47.05
2016-04-14T05:03:10.452Z,47.15
2016-04-14T05:04:10.347Z,47.44
2016-04-14T05:05:10.552Z,47.15
2016-04-14T05:06:10.602Z,47.82
2016-04-14T05:07:10.651Z,47.44
2016-04-14T05:08:10.700Z,47.25
2016-04-14T05:09:10.749Z,47.25
2016-04-14T05:10:10.816Z,47.25
2016-04-14T05:11:10.896Z,47.53
2016-04-14T05:12:10.915Z,47.44
2016-04-14T05:13:10.978Z,47.25
2016-04-14T05:14:11.072Z,47.53
2016-04-14T05:15:11.166Z,47.34
2016-04-14T05:16:11.260Z,47.44
2016-04-14T05:17:11.355Z,47.44
2016-04-14T05:18:11.439Z,47.34
2016-04-14T05:19:11.521Z,47.34
2016-04-14T05:20:11.602Z,47.46
2016-04-14T05:21:11.652Z,47.44
2016-04-14T05:22:11.734Z,47.25
2016-04-14T05:23:11.781Z,47.44
2016-04-14T05:24:11.836Z,47.36
2016-04-14T05:25:11.891Z,47.34
2016-04-14T05:26:11.883Z,47.36
2016-04-14T05:27:12.064Z,47.44
2016-04-14T05:28:12.072Z,47.34
2016-04-14T05:29:12.124Z,48.02
2016-04-14T05:30:12.175Z,47.82
2016-04-14T05:31:12.227Z,47.53
2016-04-14T05:32:12.279Z,47.25
2016-04-14T05:33:12.346Z,47.34
2016-04-14T05:34:12.396Z,47.27
2016-04-14T05:35:12.447Z,47.44
2016-04-14T05:36:12.497Z,47.92
2016-04-14T05:37:12.547Z,47.44
2016-04-14T05:38:12.597Z,47.34
2016-04-14T05:39:12.663Z,47.46
2016-04-14T05:40:12.697Z,47.25
2016-04-14T05:41:12.871Z,47.25
2016-04-14T05:42:12.811Z,47.46
2016-04-14T05:43:12.704Z,47.44
2016-04-14T05:44:12.926Z,47.46
2016-04-14T05:45:12.960Z,47.44
2016-04-14T05:46:13.010Z,47.53
2016-04-14T05:47:13.060Z,46.67
2016-04-14T05:48:13.124Z,45.23
2016-04-14T05:49:13.158Z,45.42
2016-04-14T05:50:13.224Z,44.65
2016-04-14T05:51:13.273Z,44.84
2016-04-14T05:52:13.323Z,44.46
2016-04-14T05:53:13.373Z,45.9
2016-04-14T05:54:13.421Z,44.94
2016-04-14T05:55:13.471Z,45.32
2016-04-14T05:56:13.551Z,45.42
2016-04-14T05:57:13.586Z,45.14
2016-04-14T05:58:13.636Z,44.75
2016-04-14T05:59:13.685Z,45.32
2016-04-14T06:00:13.735Z,45.23
2016-04-14T06:01:13.784Z,45.52
2016-04-14T06:02:13.834Z,45.23
2016-04-14T06:03:13.900Z,44.65
2016-04-14T06:04:13.948Z,44.37
2016-04-14T06:05:13.998Z,44.94
2016-04-14T06:06:14.032Z,44.46
2016-04-14T06:07:14.113Z,44.56
2016-04-14T06:08:14.146Z,44.08
2016-04-14T06:09:14.196Z,44.17
2016-04-14T06:10:14.246Z,43.31
2016-04-14T06:11:14.388Z,42.35
2016-04-14T06:12:14.360Z,42.64
2016-04-14T06:13:14.410Z,42.81
2016-04-14T06:14:14.459Z,42.71
2016-04-14T06:15:14.509Z,41.75
2016-04-14T06:16:14.559Z,42.11
2016-04-14T06:17:14.624Z,42.52
2016-04-14T06:18:14.657Z,42.71
2016-04-14T06:19:14.708Z,43.17
2016-04-14T06:20:14.773Z,42.79
2016-04-14T06:21:14.823Z,42.4
2016-04-14T06:22:14.871Z,42.4
2016-04-14T06:23:14.921Z,42.5
2016-04-14T06:24:14.971Z,42.4
2016-04-14T06:25:15.021Z,42.19
2016-04-14T06:26:15.118Z,42.47
2016-04-14T06:27:15.135Z,43.44
2016-04-14T06:28:15.170Z,43.44
2016-04-14T06:29:15.220Z,43.44
2016-04-14T06:30:15.268Z,43.05
2016-04-14T06:31:15.350Z,42.67
2016-04-14T06:32:15.367Z,43.63
2016-04-14T06:33:15.448Z,44.3
2016-04-14T06:34:15.482Z,44.59
2016-04-14T06:35:15.531Z,44.13
2016-04-14T06:36:15.581Z,44.32
2016-04-14T06:37:15.630Z,44.23
2016-04-14T06:38:15.680Z,44.7
2016-04-14T06:39:15.730Z,44.7
2016-04-14T06:40:15.795Z,44.23
2016-04-14T06:41:16.080Z,44.23
2016-04-14T06:42:15.847Z,44.13
2016-04-14T06:43:15.944Z,44.03
2016-04-14T06:44:15.993Z,43.84
2016-04-14T06:45:16.043Z,43.65
2016-04-14T06:46:16.093Z,43.77
2016-04-14T06:47:16.143Z,43.48
2016-04-14T06:48:16.191Z,43.38
2016-04-14T06:49:16.241Z,43.48
2016-04-14T06:50:16.306Z,43.38
2016-04-14T06:51:16.340Z,43.57
2016-04-14T06:52:16.515Z,43.87
2016-04-14T06:53:16.455Z,43.48
2016-04-14T06:54:16.490Z,43.48
2016-04-14T06:55:16.554Z,43.48
2016-04-14T06:56:16.604Z,43.38
2016-04-14T06:57:16.654Z,43.57
2016-04-14T06:58:16.703Z,43.19
2016-04-14T06:59:16.754Z,43.77
2016-04-14T07:00:16.803Z,43.67
2016-04-14T07:01:16.852Z,43.87
2016-04-14T07:02:16.902Z,43.38
2016-04-14T07:03:16.967Z,43.48
2016-04-14T07:04:17.018Z,43.38
2016-04-14T07:05:17.082Z,43.67
2016-04-14T07:06:17.163Z,43.77
2016-04-14T07:07:17.161Z,44.06
2016-04-14T07:08:17.064Z,43.98
2016-04-14T07:09:17.270Z,43.87
2016-04-14T07:10:17.319Z,43.7
2016-04-14T07:11:17.376Z,43.38
2016-04-14T07:12:17.425Z,43.79
2016-04-14T07:13:17.459Z,43.6
2016-04-14T07:14:17.360Z,43.7
2016-04-14T07:15:17.581Z,43.98
2016-04-14T07:16:17.620Z,43.5
2016-04-14T07:17:17.694Z,43.7
2016-04-14T07:18:17.726Z,43.5
2016-04-14T07:19:17.619Z,43.88
2016-04-14T07:20:17.825Z,43.88
2016-04-14T07:21:17.874Z,43.7
2016-04-14T07:22:17.924Z,43.7
2016-04-14T07:23:17.973Z,43.79
2016-04-14T07:24:18.023Z,43.7
2016-04-14T07:25:18.088Z,43.7
2016-04-14T07:26:18.137Z,43.98
2016-04-14T07:27:18.187Z,43.79
2016-04-14T07:28:18.236Z,43.6
2016-04-14T07:29:18.301Z,43.7
2016-04-14T07:30:18.336Z,43.7
2016-04-14T07:31:18.401Z,43.5
2016-04-14T07:32:18.450Z,43.5
2016-04-14T07:33:18.500Z,43.88
2016-04-14T07:34:18.550Z,43.5
2016-04-14T07:35:18.599Z,43.7
2016-04-14T07:36:18.649Z,43.7
2016-04-14T07:37:18.698Z,43.6
2016-04-14T07:38:18.748Z,43.7
2016-04-14T07:39:19.001Z,43.62
2016-04-14T07:40:18.848Z,43.4
2016-04-14T07:41:18.897Z,43.88
2016-04-14T07:42:18.962Z,43.7
2016-04-14T07:43:19.011Z,43.62
2016-04-14T07:44:19.061Z,43.71
2016-04-14T07:45:19.127Z,43.71
2016-04-14T07:46:19.160Z,43.52
2016-04-14T07:47:19.241Z,43.71
2016-04-14T07:48:19.274Z,43.71
2016-04-14T07:49:19.324Z,43.62
2016-04-14T07:50:19.374Z,43.52
2016-04-14T07:51:19.423Z,44.1
2016-04-14T07:52:19.474Z,43.81
2016-04-14T07:53:19.538Z,43.81
2016-04-14T07:54:19.588Z,43.62
2016-04-14T07:55:19.622Z,43.52
2016-04-14T07:56:19.687Z,43.62
2016-04-14T07:57:19.737Z,43.81
2016-04-14T07:58:19.786Z,43.52
2016-04-14T07:59:19.836Z,43.43
2016-04-14T08:00:19.884Z,43.71
2016-04-14T08:01:19.934Z,43.71
2016-04-14T08:02:19.984Z,43.71
2016-04-14T08:03:20.034Z,43.62
2016-04-14T08:04:20.100Z,43.62
2016-04-14T08:05:20.148Z,43.62
2016-04-14T08:06:20.198Z,43.81
2016-04-14T08:07:20.248Z,43.62
2016-04-14T08:08:20.315Z,43.33
2016-04-14T08:09:20.349Z,43.43
2016-04-14T08:10:20.387Z,43.43
2016-04-14T08:11:20.468Z,43.62
2016-04-14T08:12:20.517Z,43.52
2016-04-14T08:13:20.551Z,43.71
2016-04-14T08:14:20.601Z,43.91
2016-04-14T08:15:20.666Z,43.81
2016-04-14T08:16:20.716Z,43.71
2016-04-14T08:17:20.765Z,43.52
2016-04-14T08:18:20.815Z,43.91
2016-04-14T08:19:20.864Z,43.71
2016-04-14T08:20:20.914Z,43.81
2016-04-14T08:21:20.963Z,43.91
2016-04-14T08:22:21.013Z,43.45
2016-04-14T08:23:22.313Z,43.62
2016-04-14T08:24:21.127Z,43.64
2016-04-14T08:25:21.177Z,43.54
2016-04-14T08:26:21.226Z,43.81
2016-04-14T08:27:21.276Z,43.91
2016-04-14T08:28:21.326Z,44
2016-04-14T08:29:21.391Z,43.43
2016-04-14T08:30:21.425Z,43.91
2016-04-14T08:31:21.474Z,43.52
2016-04-14T08:32:21.540Z,43.62
2016-04-14T08:33:21.590Z,43.71
2016-04-14T08:34:21.654Z,43.52
2016-04-14T08:35:21.688Z,43.91
2016-04-14T08:36:21.737Z,43.74
2016-04-14T08:37:21.795Z,44.02
2016-04-14T08:38:21.845Z,43.74
2016-04-14T08:39:21.895Z,43.62
2016-04-14T08:40:21.945Z,43.74
2016-04-14T08:41:22.009Z,43.74
2016-04-14T08:42:22.059Z,43.84
2016-04-14T08:43:22.109Z,43.74
2016-04-14T08:44:22.158Z,43.64
2016-04-14T08:45:22.208Z,43.74
2016-04-14T08:46:22.272Z,44.02
2016-04-14T08:47:22.306Z,43.84
2016-04-14T08:48:22.356Z,44.02
2016-04-14T08:49:22.421Z,43.93
2016-04-14T08:50:22.471Z,43.84
2016-04-14T08:51:22.520Z,43.93
2016-04-14T08:52:22.569Z,43.74
2016-04-14T08:53:22.619Z,43.74
2016-04-14T08:54:22.685Z,43.74
2016-04-14T08:55:22.735Z,43.93
2016-04-14T08:56:22.784Z,43.74
2016-04-14T08:57:22.833Z,43.74
2016-04-14T08:58:22.882Z,43.64
2016-04-14T08:59:22.932Z,44.02
2016-04-14T09:00:22.982Z,43.93
2016-04-14T09:01:23.048Z,43.64
2016-04-14T09:02:23.097Z,43.64
2016-04-14T09:03:23.147Z,43.54
2016-04-14T09:04:23.196Z,43.64
2016-04-14T09:05:23.246Z,43.84
2016-04-14T09:06:23.296Z,43.45
2016-04-14T09:07:23.360Z,43.93
2016-04-14T09:08:23.238Z,43.84
2016-04-14T09:09:23.506Z,43.84
2016-04-14T09:10:23.525Z,43.93
2016-04-14T09:11:23.558Z,43.64
2016-04-14T09:12:23.608Z,43.74
2016-04-14T09:13:23.673Z,43.64
2016-04-14T09:14:23.722Z,43.84
2016-04-14T09:15:23.773Z,43.64
2016-04-14T09:16:23.822Z,43.74
2016-04-14T09:17:23.872Z,43.84
2016-04-14T09:18:23.922Z,43.74
2016-04-14T09:19:23.971Z,43.64
2016-04-14T09:20:24.036Z,43.84
2016-04-14T09:21:24.085Z,43.64
2016-04-14T09:22:24.135Z,43.54
2016-04-14T09:23:24.184Z,43.74
2016-04-14T09:24:24.249Z,43.54
2016-04-14T09:25:24.283Z,43.64
2016-04-14T09:26:24.349Z,43.64
2016-04-14T09:27:24.398Z,43.54
2016-04-14T09:28:24.449Z,43.54
2016-04-14T09:29:24.498Z,43.54
2016-04-14T09:30:24.547Z,43.54
2016-04-14T09:31:24.596Z,43.54
2016-04-14T09:32:24.677Z,43.64
2016-04-14T09:33:24.696Z,43.45
2016-04-14T09:34:24.761Z,43.54
2016-04-14T09:35:24.810Z,43.35
2016-04-14T09:36:24.876Z,43.54
2016-04-14T09:37:24.910Z,43.64
2016-04-14T09:38:24.960Z,43.35
2016-04-14T09:39:25.009Z,43.54
2016-04-14T09:40:25.074Z,43.74
2016-04-14T09:41:25.123Z,43.26
2016-04-14T09:42:25.189Z,43.45
2016-04-14T09:43:25.222Z,43.54
2016-04-14T09:44:25.288Z,43.16
2016-04-14T09:45:25.322Z,43.54
2016-04-14T09:46:25.386Z,43.54
2016-04-14T09:47:25.436Z,43.26
2016-04-14T09:48:25.486Z,43.07
2016-04-14T09:49:25.536Z,43.54
2016-04-14T09:50:25.600Z,43.45
2016-04-14T09:51:25.650Z,43.26
2016-04-14T09:52:25.685Z,43.57
2016-04-14T09:53:25.749Z,43.07
2016-04-14T09:54:25.799Z,43.07
2016-04-14T09:55:25.848Z,43.54
2016-04-14T09:56:25.898Z,43.45
2016-04-14T09:57:25.948Z,43.37
2016-04-14T09:58:26.029Z,43.45
2016-04-14T09:59:26.078Z,43.35
2016-04-14T10:00:26.112Z,42.77
2016-04-14T10:01:26.162Z,43.07
2016-04-14T10:02:26.227Z,43.26
2016-04-14T10:03:26.260Z,43.54
2016-04-14T10:04:26.310Z,43.54
2016-04-14T10:05:26.376Z,43.45
2016-04-14T10:06:26.425Z,43.45
2016-04-14T10:07:26.476Z,43.26
2016-04-14T10:08:26.524Z,43.26
2016-04-14T10:09:26.590Z,43.26
2016-04-14T10:10:26.640Z,43.45
2016-04-14T10:11:26.673Z,43.45
2016-04-14T10:12:26.739Z,43.26
2016-04-14T10:13:26.787Z,43.26
2016-04-14T10:14:26.837Z,43.26
2016-04-14T10:15:26.886Z,43.37
2016-04-14T10:16:26.952Z,43.37
2016-04-14T10:17:27.002Z,43.47
2016-04-14T10:18:27.051Z,43.07
2016-04-14T10:19:27.101Z,42.68
2016-04-14T10:20:27.150Z,42.87
2016-04-14T10:21:27.200Z,43.07
2016-04-14T10:22:27.249Z,42.97
2016-04-14T10:23:27.314Z,43.45
2016-04-14T10:24:27.364Z,43.16
2016-04-14T10:25:27.413Z,43.07
2016-04-14T10:26:27.463Z,43.08
2016-04-14T10:27:27.512Z,43.07
2016-04-14T10:28:27.577Z,43.07
2016-04-14T10:29:27.627Z,43.16
2016-04-14T10:30:27.677Z,42.97
2016-04-14T10:31:27.727Z,43.28
2016-04-14T10:32:27.776Z,43.26
2016-04-14T10:33:27.841Z,42.99
2016-04-14T10:34:27.891Z,43.26
2016-04-14T10:35:27.190Z,43.35
2016-04-14T10:36:27.991Z,43.28
2016-04-14T10:37:28.040Z,43.16
2016-04-14T10:38:28.090Z,42.68
2016-04-14T10:39:28.015Z,43.07
2016-04-14T10:40:28.704Z,43.16
2016-04-14T10:41:28.254Z,43.07
2016-04-14T10:42:28.303Z,43.18
2016-04-14T10:43:28.353Z,42.68
2016-04-14T10:44:28.417Z,43.07
2016-04-14T10:45:28.453Z,43.07
2016-04-14T10:46:28.517Z,43.16
2016-04-14T10:47:28.567Z,43.07
2016-04-14T10:48:28.617Z,42.97
2016-04-14T10:49:28.713Z,43.26
2016-04-14T10:50:28.716Z,42.97
2016-04-14T10:51:28.780Z,43.16
2016-04-14T10:52:28.814Z,42.77
2016-04-14T10:53:28.879Z,43.26
2016-04-14T10:54:28.929Z,43.16
2016-04-14T10:55:28.979Z,43.07
2016-04-14T10:56:29.044Z,42.77
2016-04-14T10:57:29.078Z,42.97
2016-04-14T10:58:29.143Z,43.07
2016-04-14T10:59:29.193Z,43.35
2016-04-14T11:00:29.242Z,43.16
2016-04-14T11:01:29.307Z,42.68
2016-04-14T11:02:29.341Z,43.26
2016-04-14T11:03:29.391Z,43.07
2016-04-14T11:04:29.457Z,43.07
2016-04-14T11:05:29.507Z,42.68
2016-04-14T11:06:29.555Z,42.77
2016-04-14T11:07:29.605Z,43.07
2016-04-14T11:08:29.654Z,42.58
2016-04-14T11:09:29.704Z,42.87
2016-04-14T11:10:29.754Z,42.97
2016-04-14T11:11:29.818Z,42.77
2016-04-14T11:12:29.868Z,42.77
2016-04-14T11:13:29.917Z,42.87
2016-04-14T11:14:29.968Z,42.87
2016-04-14T11:15:30.017Z,42.87
2016-04-14T11:16:30.082Z,42.97
2016-04-14T11:17:30.131Z,42.97
2016-04-14T11:18:30.853Z,42.97
2016-04-14T11:19:30.231Z,42.77
2016-04-14T11:20:30.280Z,42.77
2016-04-14T11:21:30.330Z,42.49
2016-04-14T11:22:30.394Z,42.3
2016-04-14T11:23:30.444Z,41.82
2016-04-14T11:24:30.494Z,41.43
2016-04-14T11:25:30.560Z,42.3
2016-04-14T11:26:30.594Z,42.58
2016-04-14T11:27:30.690Z,42.77
2016-04-14T11:28:30.693Z,42.68
2016-04-14T11:29:30.773Z,42.49
2016-04-14T11:30:30.807Z,42.1
2016-04-14T11:31:30.872Z,42.3
2016-04-14T11:32:30.907Z,42.49
2016-04-14T11:33:30.957Z,42.58
2016-04-14T11:34:31.020Z,42.49
2016-04-14T11:35:31.070Z,42.3
2016-04-14T11:36:31.120Z,42.68
2016-04-14T11:37:31.169Z,42.77
2016-04-14T11:38:31.219Z,42.87
2016-04-14T11:39:31.283Z,42.49
2016-04-14T11:40:31.333Z,42.49
2016-04-14T11:41:31.383Z,42.3
2016-04-14T11:42:31.573Z,42.2
2016-04-14T11:43:31.483Z,42.2
2016-04-14T11:44:31.531Z,42.39
2016-04-14T11:45:31.581Z,42.49
2016-04-14T11:46:31.646Z,42.68
2016-04-14T11:47:31.696Z,42.49
2016-04-14T11:48:31.746Z,42.39
2016-04-14T11:49:31.794Z,42.3
2016-04-14T11:50:31.849Z,42.49
2016-04-14T11:51:31.915Z,42.49
2016-04-14T11:52:32.433Z,42.39
2016-04-14T11:53:31.998Z,42.49
2016-04-14T11:54:32.048Z,42.39
2016-04-14T11:55:32.113Z,42.49
2016-04-14T11:56:32.162Z,42.2
2016-04-14T11:57:32.259Z,42.2
2016-04-14T11:58:32.261Z,42.3
2016-04-14T11:59:32.326Z,41.91
2016-04-14T12:00:32.361Z,42.3
2016-04-14T12:01:32.426Z,42.3
2016-04-14T12:02:32.476Z,42
2016-04-14T12:03:32.540Z,42.1
2016-04-14T12:04:32.575Z,41.91
2016-04-14T12:05:32.624Z,42.3
2016-04-14T12:06:31.939Z,42.3
2016-04-14T12:07:32.739Z,42.39
2016-04-14T12:08:32.788Z,42.1
2016-04-14T12:09:32.838Z,42.3
2016-04-14T12:10:32.887Z,42.39
2016-04-14T12:11:32.937Z,42.39
2016-04-14T12:12:33.002Z,42.3
2016-04-14T12:13:33.036Z,42.39
2016-04-14T12:14:33.101Z,42.3
2016-04-14T12:15:33.151Z,42.39
2016-04-14T12:16:33.200Z,42.1
2016-04-14T12:17:33.250Z,42.3
2016-04-14T12:18:33.316Z,41.53
2016-04-14T12:19:33.365Z,41.43
2016-04-14T12:20:33.415Z,41.53
2016-04-14T12:21:33.463Z,41.53
2016-04-14T12:22:33.513Z,41.62
2016-04-14T12:23:33.563Z,41.72
2016-04-14T12:24:33.612Z,41.43
2016-04-14T12:25:33.678Z,41.62
2016-04-14T12:26:33.743Z,41.82
2016-04-14T12:27:33.776Z,41.53
2016-04-14T12:28:33.827Z,41.82
2016-04-14T12:29:33.876Z,41.82
2016-04-14T12:30:33.942Z,41.62
2016-04-14T12:31:33.990Z,42.49
2016-04-14T12:32:34.040Z,42.1
2016-04-14T12:33:34.090Z,41.62
2016-04-14T12:34:34.139Z,41.43
2016-04-14T12:35:34.189Z,41.62
2016-04-14T12:36:34.238Z,41.33
2016-04-14T12:37:34.303Z,41.14
2016-04-14T12:38:34.353Z,41.14
2016-04-14T12:39:34.403Z,41.05
2016-04-14T12:40:34.453Z,41.24
2016-04-14T12:41:34.502Z,41.33
2016-04-14T12:42:34.630Z,41.62
2016-04-14T12:43:34.601Z,41.43
2016-04-14T12:44:34.666Z,41.53
2016-04-14T12:45:34.716Z,41.33
2016-04-14T12:46:34.766Z,41.05
2016-04-14T12:47:34.816Z,41.33
2016-04-14T12:48:34.865Z,41.14
2016-04-14T12:49:34.914Z,41.05
2016-04-14T12:50:34.979Z,40.95
2016-04-14T12:51:35.029Z,41.33
2016-04-14T12:52:35.078Z,41.24
2016-04-14T12:53:35.128Z,41.24
2016-04-14T12:54:35.177Z,41.33
2016-04-14T12:55:35.227Z,41.62
2016-04-14T12:56:35.277Z,41.53
2016-04-14T12:57:35.343Z,41.33